sensor_id;sensor_type;location;lat;lon;timestamp;pressure;altitude;pressure_sealevel;temperature;humidity
56600;BME280;51832;48.152;11.530;2023-08-06T00:04:01;94844.47;;;17.36;100.00
56600;BME280;51832;48.152;11.530;2023-08-06T00:09:01;94847.13;;;17.02;100.00
56600;BME280;51832;48.152;11.530;2023-08-06T00:14:02;94852.38;;;17.12;100.00
56600;BME280;51832;48.152;11.530;2023-08-06T00:19:03;94848.19;;;17.06;100.00
56600;BME280;51832;48.152;11.530;2023-08-06T00:24:03;94854.13;;;16.33;100.00
56600;BME280;51832;48.152;11.530;2023-08-06T00:29:03;94842.41;;;16.40;100.00
56600;BME280;51832;48.152;11.530;2023-08-06T00:34:04;94844.56;;;16.27;100.00
56600;BME280;51832;48.152;11.530;2023-08-06T00:39:04;94845.88;;;16.35;100.00
56600;BME280;51832;48.152;11.530;2023-08-06T00:44:05;94825.72;;;16.34;100.00
56600;BME280;51832;48.152;11.530;2023-08-06T00:49:05;94833.63;;;16.44;100.00
56600;BME280;51832;48.152;11.530;2023-08-06T00:54:06;94833.06;;;16.52;100.00
56600;BME280;51832;48.152;11.530;2023-08-06T00:59:06;94828.34;;;16.39;100.00
56600;BME280;51832;48.152;11.530;2023-08-06T01:04:08;94814.53;;;16.37;100.00
56600;BME280;51832;48.152;11.530;2023-08-06T01:15:03;94820.19;;;16.20;100.00
56600;BME280;51832;48.152;11.530;2023-08-06T01:20:07;94823.41;;;16.07;100.00
56600;BME280;51832;48.152;11.530;2023-08-06T01:25:08;94811.00;;;15.97;100.00
56600;BME280;51832;48.152;11.530;2023-08-06T01:30:25;94800.66;;;15.86;100.00
56600;BME280;51832;48.152;11.530;2023-08-06T01:35:27;94807.28;;;15.88;100.00
56600;BME280;51832;48.152;11.530;2023-08-06T01:40:29;94796.41;;;15.95;100.00
56600;BME280;51832;48.152;11.530;2023-08-06T01:45:30;94790.13;;;15.71;100.00
56600;BME280;51832;48.152;11.530;2023-08-06T01:50:30;94795.13;;;15.72;100.00
56600;BME280;51832;48.152;11.530;2023-08-06T01:55:30;94790.88;;;15.76;100.00
56600;BME280;51832;48.152;11.530;2023-08-06T02:00:31;94794.84;;;15.84;100.00
56600;BME280;51832;48.152;11.530;2023-08-06T02:05:31;94775.75;;;15.82;100.00
56600;BME280;51832;48.152;11.530;2023-08-06T02:10:32;94771.72;;;15.94;100.00
56600;BME280;51832;48.152;11.530;2023-08-06T02:15:32;94767.28;;;15.75;100.00
56600;BME280;51832;48.152;11.530;2023-08-06T02:20:33;94765.38;;;15.90;100.00
56600;BME280;51832;48.152;11.530;2023-08-06T02:25:33;94755.88;;;15.79;100.00
56600;BME280;51832;48.152;11.530;2023-08-06T02:30:34;94759.31;;;15.85;100.00
56600;BME280;51832;48.152;11.530;2023-08-06T02:35:34;94754.00;;;15.85;100.00
56600;BME280;51832;48.152;11.530;2023-08-06T02:40:34;94733.53;;;15.90;100.00
56600;BME280;51832;48.152;11.530;2023-08-06T02:45:35;94734.28;;;16.01;100.00
56600;BME280;51832;48.152;11.530;2023-08-06T02:50:39;94706.94;;;16.00;100.00
56600;BME280;51832;48.152;11.530;2023-08-06T02:55:45;94713.63;;;15.88;100.00
56600;BME280;51832;48.152;11.530;2023-08-06T03:01:07;94702.75;;;15.89;100.00
56600;BME280;51832;48.152;11.530;2023-08-06T03:06:08;94706.59;;;15.63;100.00
56600;BME280;51832;48.152;11.530;2023-08-06T03:11:09;94712.69;;;15.48;100.00
56600;BME280;51832;48.152;11.530;2023-08-06T03:16:09;94729.97;;;15.41;100.00
56600;BME280;51832;48.152;11.530;2023-08-06T03:21:10;94729.94;;;15.46;100.00
56600;BME280;51832;48.152;11.530;2023-08-06T03:26:10;94716.44;;;15.32;100.00
56600;BME280;51832;48.152;11.530;2023-08-06T03:31:10;94725.94;;;15.48;100.00
56600;BME280;51832;48.152;11.530;2023-08-06T03:36:11;94716.97;;;15.44;100.00
56600;BME280;51832;48.152;11.530;2023-08-06T03:41:11;94714.28;;;15.49;100.00
56600;BME280;51832;48.152;11.530;2023-08-06T03:46:12;94716.72;;;15.41;100.00
56600;BME280;51832;48.152;11.530;2023-08-06T03:51:12;94708.97;;;15.54;100.00
56600;BME280;51832;48.152;11.530;2023-08-06T03:56:13;94702.16;;;15.23;100.00
56600;BME280;51832;48.152;11.530;2023-08-06T04:01:13;94705.38;;;15.15;100.00
56600;BME280;51832;48.152;11.530;2023-08-06T04:06:14;94714.63;;;15.27;100.00
56600;BME280;51832;48.152;11.530;2023-08-06T04:11:14;94703.72;;;15.34;100.00
56600;BME280;51832;48.152;11.530;2023-08-06T04:16:14;94691.06;;;15.16;100.00
56600;BME280;51832;48.152;11.530;2023-08-06T04:21:15;94709.06;;;15.24;100.00
56600;BME280;51832;48.152;11.530;2023-08-06T04:26:16;94700.06;;;15.15;100.00
56600;BME280;51832;48.152;11.530;2023-08-06T04:31:16;94709.88;;;15.09;100.00
56600;BME280;51832;48.152;11.530;2023-08-06T04:36:17;94708.31;;;14.98;100.00
56600;BME280;51832;48.152;11.530;2023-08-06T04:41:17;94719.41;;;15.10;100.00
56600;BME280;51832;48.152;11.530;2023-08-06T04:46:18;94726.31;;;15.01;100.00
56600;BME280;51832;48.152;11.530;2023-08-06T04:51:18;94734.75;;;15.18;100.00
56600;BME280;51832;48.152;11.530;2023-08-06T04:56:19;94716.22;;;15.18;100.00
56600;BME280;51832;48.152;11.530;2023-08-06T05:01:19;94708.53;;;15.22;100.00
56600;BME280;51832;48.152;11.530;2023-08-06T05:06:20;94716.19;;;15.39;100.00
56600;BME280;51832;48.152;11.530;2023-08-06T05:11:20;94713.03;;;15.26;100.00
56600;BME280;51832;48.152;11.530;2023-08-06T05:16:20;94701.56;;;15.46;100.00
56600;BME280;51832;48.152;11.530;2023-08-06T05:21:21;94697.09;;;15.42;100.00
56600;BME280;51832;48.152;11.530;2023-08-06T05:26:21;94702.28;;;15.72;100.00
56600;BME280;51832;48.152;11.530;2023-08-06T05:31:22;94703.41;;;15.51;100.00
56600;BME280;51832;48.152;11.530;2023-08-06T05:36:22;94727.31;;;15.56;100.00
56600;BME280;51832;48.152;11.530;2023-08-06T05:41:23;94722.16;;;15.85;100.00
56600;BME280;51832;48.152;11.530;2023-08-06T05:46:23;94729.06;;;15.81;100.00
56600;BME280;51832;48.152;11.530;2023-08-06T05:51:26;94713.91;;;15.86;100.00
56600;BME280;51832;48.152;11.530;2023-08-06T05:56:27;94710.66;;;15.99;100.00
56600;BME280;51832;48.152;11.530;2023-08-06T06:01:27;94710.38;;;16.11;100.00
56600;BME280;51832;48.152;11.530;2023-08-06T06:06:28;94713.41;;;16.33;99.31
56600;BME280;51832;48.152;11.530;2023-08-06T06:11:28;94714.78;;;16.26;99.19
56600;BME280;51832;48.152;11.530;2023-08-06T06:16:28;94716.91;;;16.24;98.87
56600;BME280;51832;48.152;11.530;2023-08-06T06:21:29;94713.06;;;16.45;96.25
56600;BME280;51832;48.152;11.530;2023-08-06T06:26:30;94716.66;;;16.25;97.36
56600;BME280;51832;48.152;11.530;2023-08-06T06:31:30;94725.16;;;16.22;97.18
56600;BME280;51832;48.152;11.530;2023-08-06T06:36:31;94717.84;;;16.43;95.92
56600;BME280;51832;48.152;11.530;2023-08-06T06:41:31;94719.56;;;16.68;95.15
56600;BME280;51832;48.152;11.530;2023-08-06T06:46:33;94724.03;;;16.78;94.24
56600;BME280;51832;48.152;11.530;2023-08-06T06:51:33;94711.00;;;16.76;93.54
56600;BME280;51832;48.152;11.530;2023-08-06T06:56:33;94715.22;;;17.11;91.78
56600;BME280;51832;48.152;11.530;2023-08-06T07:01:34;94716.06;;;17.35;90.54
56600;BME280;51832;48.152;11.530;2023-08-06T07:06:34;94727.97;;;17.14;87.84
56600;BME280;51832;48.152;11.530;2023-08-06T07:11:35;94725.00;;;17.45;86.64
56600;BME280;51832;48.152;11.530;2023-08-06T07:16:35;94752.06;;;17.23;86.84
56600;BME280;51832;48.152;11.530;2023-08-06T07:21:36;94730.78;;;17.52;86.69
56600;BME280;51832;48.152;11.530;2023-08-06T07:26:36;94750.94;;;16.66;90.85
56600;BME280;51832;48.152;11.530;2023-08-06T07:31:37;94729.31;;;16.39;95.24
56600;BME280;51832;48.152;11.530;2023-08-06T07:36:37;94716.22;;;16.52;95.60
56600;BME280;51832;48.152;11.530;2023-08-06T07:41:38;94716.25;;;16.42;96.09
56600;BME280;51832;48.152;11.530;2023-08-06T07:46:39;94721.78;;;16.51;95.88
56600;BME280;51832;48.152;11.530;2023-08-06T07:51:41;94702.25;;;16.76;94.57
56600;BME280;51832;48.152;11.530;2023-08-06T07:56:42;94702.53;;;16.74;93.14
56600;BME280;51832;48.152;11.530;2023-08-06T08:01:42;94696.09;;;16.80;92.58
56600;BME280;51832;48.152;11.530;2023-08-06T08:06:43;94695.78;;;16.87;91.33
56600;BME280;51832;48.152;11.530;2023-08-06T08:11:45;94694.69;;;17.46;88.79
56600;BME280;51832;48.152;11.530;2023-08-06T08:16:46;94713.63;;;17.39;86.34
56600;BME280;51832;48.152;11.530;2023-08-06T08:21:46;94685.59;;;17.75;85.29
56600;BME280;51832;48.152;11.530;2023-08-06T08:26:47;94683.81;;;17.66;81.27
56600;BME280;51832;48.152;11.530;2023-08-06T08:31:48;94690.03;;;17.80;82.31
56600;BME280;51832;48.152;11.530;2023-08-06T08:36:52;94694.22;;;17.38;82.47
56600;BME280;51832;48.152;11.530;2023-08-06T08:41:52;94686.28;;;17.57;83.62
56600;BME280;51832;48.152;11.530;2023-08-06T08:46:53;94697.53;;;16.96;83.81
56600;BME280;51832;48.152;11.530;2023-08-06T08:51:54;94695.38;;;17.03;83.54
56600;BME280;51832;48.152;11.530;2023-08-06T08:56:55;94730.78;;;17.52;81.46
56600;BME280;51832;48.152;11.530;2023-08-06T09:01:57;94694.72;;;17.17;82.24
56600;BME280;51832;48.152;11.530;2023-08-06T09:07:00;94711.72;;;17.45;82.13
56600;BME280;51832;48.152;11.530;2023-08-06T09:12:11;94691.88;;;17.08;84.32
56600;BME280;51832;48.152;11.530;2023-08-06T09:17:13;94718.53;;;16.64;85.86
56600;BME280;51832;48.152;11.530;2023-08-06T09:22:14;94726.97;;;16.27;85.43
56600;BME280;51832;48.152;11.530;2023-08-06T09:27:14;94739.31;;;16.52;83.70
56600;BME280;51832;48.152;11.530;2023-08-06T09:32:15;94721.63;;;16.37;85.08
56600;BME280;51832;48.152;11.530;2023-08-06T09:37:15;94717.00;;;16.53;85.31
56600;BME280;51832;48.152;11.530;2023-08-06T09:42:16;94721.09;;;16.79;84.66
56600;BME280;51832;48.152;11.530;2023-08-06T09:47:16;94704.81;;;17.15;83.52
56600;BME280;51832;48.152;11.530;2023-08-06T09:52:18;94781.25;;;16.55;84.33
56600;BME280;51832;48.152;11.530;2023-08-06T09:57:19;94701.38;;;16.46;84.76
56600;BME280;51832;48.152;11.530;2023-08-06T10:02:23;94713.16;;;16.74;82.83
56600;BME280;51832;48.152;11.530;2023-08-06T10:07:26;94730.50;;;16.56;83.59
56600;BME280;51832;48.152;11.530;2023-08-06T10:12:29;94749.66;;;16.53;83.53
56600;BME280;51832;48.152;11.530;2023-08-06T10:17:31;94725.06;;;17.11;81.57
56600;BME280;51832;48.152;11.530;2023-08-06T10:32:49;94736.22;;;17.13;82.25
56600;BME280;51832;48.152;11.530;2023-08-06T10:37:50;94742.66;;;16.73;83.48
56600;BME280;51832;48.152;11.530;2023-08-06T10:42:51;94728.84;;;16.70;84.08
56600;BME280;51832;48.152;11.530;2023-08-06T10:47:51;94757.50;;;16.74;83.22
56600;BME280;51832;48.152;11.530;2023-08-06T10:52:53;94725.78;;;16.53;83.87
56600;BME280;51832;48.152;11.530;2023-08-06T10:57:54;94729.53;;;17.15;83.00
56600;BME280;51832;48.152;11.530;2023-08-06T11:02:55;94722.63;;;17.14;81.52
56600;BME280;51832;48.152;11.530;2023-08-06T11:07:56;94754.19;;;17.50;80.53
56600;BME280;51832;48.152;11.530;2023-08-06T11:13:01;94740.00;;;17.35;81.05
56600;BME280;51832;48.152;11.530;2023-08-06T11:18:02;94743.38;;;17.41;81.16
56600;BME280;51832;48.152;11.530;2023-08-06T11:23:03;94768.34;;;17.16;81.97
56600;BME280;51832;48.152;11.530;2023-08-06T11:28:04;94789.59;;;16.82;80.78
56600;BME280;51832;48.152;11.530;2023-08-06T11:33:07;94774.13;;;16.94;82.59
56600;BME280;51832;48.152;11.530;2023-08-06T11:38:09;94773.78;;;17.01;84.29
56600;BME280;51832;48.152;11.530;2023-08-06T11:43:10;94752.06;;;17.23;83.93
56600;BME280;51832;48.152;11.530;2023-08-06T11:48:11;94762.75;;;16.84;84.32
56600;BME280;51832;48.152;11.530;2023-08-06T11:53:14;94756.13;;;17.15;83.54
56600;BME280;51832;48.152;11.530;2023-08-06T11:58:16;94750.81;;;17.73;81.54
56600;BME280;51832;48.152;11.530;2023-08-06T12:03:19;94812.97;;;16.85;83.88
56600;BME280;51832;48.152;11.530;2023-08-06T12:08:19;94771.63;;;16.69;85.55
56600;BME280;51832;48.152;11.530;2023-08-06T12:13:20;94790.97;;;16.80;85.39
56600;BME280;51832;48.152;11.530;2023-08-06T12:18:20;94777.44;;;17.10;84.30
56600;BME280;51832;48.152;11.530;2023-08-06T12:23:21;94782.69;;;17.20;83.62
56600;BME280;51832;48.152;11.530;2023-08-06T12:28:21;94830.09;;;17.08;83.51
56600;BME280;51832;48.152;11.530;2023-08-06T12:33:21;94767.19;;;17.27;83.12
56600;BME280;51832;48.152;11.530;2023-08-06T12:38:22;94786.41;;;17.19;83.29
56600;BME280;51832;48.152;11.530;2023-08-06T12:43:22;94813.09;;;17.04;87.25
56600;BME280;51832;48.152;11.530;2023-08-06T12:48:23;94793.91;;;16.14;96.31
56600;BME280;51832;48.152;11.530;2023-08-06T12:53:23;94825.19;;;16.32;96.25
56600;BME280;51832;48.152;11.530;2023-08-06T12:58:23;94827.84;;;16.32;92.80
56600;BME280;51832;48.152;11.530;2023-08-06T13:03:24;94803.22;;;16.70;89.14
56600;BME280;51832;48.152;11.530;2023-08-06T13:08:25;94835.34;;;16.79;89.00
56600;BME280;51832;48.152;11.530;2023-08-06T13:13:25;94805.31;;;17.47;87.30
56600;BME280;51832;48.152;11.530;2023-08-06T13:18:27;94834.84;;;17.45;86.35
56600;BME280;51832;48.152;11.530;2023-08-06T13:23:29;94888.97;;;16.12;96.51
56600;BME280;51832;48.152;11.530;2023-08-06T13:28:29;94838.66;;;15.71;98.56
56600;BME280;51832;48.152;11.530;2023-08-06T13:33:30;94823.75;;;15.85;97.91
56600;BME280;51832;48.152;11.530;2023-08-06T13:38:30;94809.22;;;16.37;96.67
56600;BME280;51832;48.152;11.530;2023-08-06T13:43:31;94838.06;;;16.54;94.47
56600;BME280;51832;48.152;11.530;2023-08-06T13:48:31;94834.69;;;16.43;94.99
56600;BME280;51832;48.152;11.530;2023-08-06T13:53:32;94844.19;;;15.85;99.15
56600;BME280;51832;48.152;11.530;2023-08-06T13:58:33;94835.09;;;16.11;98.39
56600;BME280;51832;48.152;11.530;2023-08-06T14:03:33;94870.44;;;15.76;99.25
56600;BME280;51832;48.152;11.530;2023-08-06T14:08:34;94879.44;;;15.85;100.00
56600;BME280;51832;48.152;11.530;2023-08-06T14:13:34;94855.56;;;15.90;100.00
56600;BME280;51832;48.152;11.530;2023-08-06T14:18:35;94883.19;;;15.54;100.00
56600;BME280;51832;48.152;11.530;2023-08-06T14:23:37;94893.25;;;15.52;100.00
56600;BME280;51832;48.152;11.530;2023-08-06T14:28:38;94904.13;;;15.86;100.00
56600;BME280;51832;48.152;11.530;2023-08-06T14:33:38;94892.19;;;15.38;100.00
56600;BME280;51832;48.152;11.530;2023-08-06T14:38:39;94901.72;;;15.08;100.00
56600;BME280;51832;48.152;11.530;2023-08-06T14:43:39;94926.91;;;15.26;100.00
56600;BME280;51832;48.152;11.530;2023-08-06T14:48:40;94903.84;;;15.11;100.00
56600;BME280;51832;48.152;11.530;2023-08-06T14:53:42;94917.38;;;15.15;100.00
56600;BME280;51832;48.152;11.530;2023-08-06T14:58:42;94926.31;;;15.04;100.00
56600;BME280;51832;48.152;11.530;2023-08-06T15:03:43;94941.91;;;14.80;100.00
56600;BME280;51832;48.152;11.530;2023-08-06T15:08:43;94927.69;;;15.32;100.00
56600;BME280;51832;48.152;11.530;2023-08-06T15:13:46;94934.09;;;15.31;100.00
56600;BME280;51832;48.152;11.530;2023-08-06T15:18:47;94936.44;;;15.12;100.00
56600;BME280;51832;48.152;11.530;2023-08-06T15:23:48;94959.75;;;15.10;100.00
56600;BME280;51832;48.152;11.530;2023-08-06T15:28:49;94973.50;;;15.07;100.00
56600;BME280;51832;48.152;11.530;2023-08-06T15:33:49;94962.06;;;14.91;100.00
56600;BME280;51832;48.152;11.530;2023-08-06T15:38:50;94974.69;;;14.69;100.00
56600;BME280;51832;48.152;11.530;2023-08-06T15:43:50;94973.91;;;14.68;100.00
56600;BME280;51832;48.152;11.530;2023-08-06T15:48:50;94987.66;;;14.65;100.00
56600;BME280;51832;48.152;11.530;2023-08-06T15:53:54;94988.47;;;14.23;100.00
56600;BME280;51832;48.152;11.530;2023-08-06T15:58:57;94978.47;;;14.36;100.00
56600;BME280;51832;48.152;11.530;2023-08-06T16:03:58;94963.25;;;14.48;100.00
56600;BME280;51832;48.152;11.530;2023-08-06T16:08:58;94969.22;;;14.85;100.00
56600;BME280;51832;48.152;11.530;2023-08-06T16:13:59;94984.53;;;14.73;100.00
56600;BME280;51832;48.152;11.530;2023-08-06T16:19:01;94992.72;;;14.72;100.00
56600;BME280;51832;48.152;11.530;2023-08-06T16:24:02;95007.50;;;14.63;100.00
56600;BME280;51832;48.152;11.530;2023-08-06T16:29:04;94996.69;;;14.69;100.00
56600;BME280;51832;48.152;11.530;2023-08-06T16:34:05;95030.03;;;14.28;100.00
56600;BME280;51832;48.152;11.530;2023-08-06T16:39:05;95031.38;;;13.94;100.00
56600;BME280;51832;48.152;11.530;2023-08-06T16:44:06;95016.25;;;14.21;100.00
56600;BME280;51832;48.152;11.530;2023-08-06T16:49:08;95018.25;;;14.09;100.00
56600;BME280;51832;48.152;11.530;2023-08-06T16:54:08;95014.97;;;14.29;100.00
56600;BME280;51832;48.152;11.530;2023-08-06T16:59:08;95021.06;;;14.29;100.00
56600;BME280;51832;48.152;11.530;2023-08-06T17:04:09;95020.81;;;14.31;100.00
56600;BME280;51832;48.152;11.530;2023-08-06T17:09:09;95026.38;;;14.34;100.00
56600;BME280;51832;48.152;11.530;2023-08-06T17:14:12;95030.72;;;14.45;100.00
56600;BME280;51832;48.152;11.530;2023-08-06T17:19:12;95019.09;;;14.46;100.00
56600;BME280;51832;48.152;11.530;2023-08-06T17:24:13;95019.50;;;14.33;100.00
56600;BME280;51832;48.152;11.530;2023-08-06T17:29:13;95043.97;;;14.13;100.00
56600;BME280;51832;48.152;11.530;2023-08-06T17:34:13;95044.38;;;14.37;100.00
56600;BME280;51832;48.152;11.530;2023-08-06T17:39:14;95041.19;;;14.77;100.00
56600;BME280;51832;48.152;11.530;2023-08-06T17:44:14;95044.97;;;15.64;100.00
56600;BME280;51832;48.152;11.530;2023-08-06T17:49:15;95055.91;;;16.39;95.76
56600;BME280;51832;48.152;11.530;2023-08-06T17:54:15;95070.75;;;16.70;92.82
56600;BME280;51832;48.152;11.530;2023-08-06T17:59:16;95068.00;;;17.05;90.98
56600;BME280;51832;48.152;11.530;2023-08-06T18:04:16;95069.44;;;16.07;95.87
56600;BME280;51832;48.152;11.530;2023-08-06T18:09:17;95077.78;;;15.48;99.27
56600;BME280;51832;48.152;11.530;2023-08-06T18:14:17;95094.66;;;15.21;100.00
56600;BME280;51832;48.152;11.530;2023-08-06T18:19:18;95081.59;;;15.00;100.00
56600;BME280;51832;48.152;11.530;2023-08-06T18:24:18;95092.63;;;14.81;100.00
56600;BME280;51832;48.152;11.530;2023-08-06T18:29:19;95094.59;;;14.59;100.00
56600;BME280;51832;48.152;11.530;2023-08-06T18:34:19;95092.81;;;14.70;100.00
56600;BME280;51832;48.152;11.530;2023-08-06T18:39:20;95105.41;;;14.52;100.00
56600;BME280;51832;48.152;11.530;2023-08-06T18:44:20;95090.31;;;14.48;100.00
56600;BME280;51832;48.152;11.530;2023-08-06T18:49:21;95097.69;;;14.46;100.00
56600;BME280;51832;48.152;11.530;2023-08-06T18:54:21;95131.47;;;14.34;100.00
56600;BME280;51832;48.152;11.530;2023-08-06T18:59:23;95166.31;;;14.26;100.00
56600;BME280;51832;48.152;11.530;2023-08-06T19:04:23;95135.41;;;14.31;100.00
56600;BME280;51832;48.152;11.530;2023-08-06T19:09:24;95128.03;;;14.38;100.00
56600;BME280;51832;48.152;11.530;2023-08-06T19:14:25;95128.38;;;14.15;100.00
56600;BME280;51832;48.152;11.530;2023-08-06T19:19:26;95119.16;;;14.22;100.00
56600;BME280;51832;48.152;11.530;2023-08-06T19:24:27;95147.38;;;14.07;99.06
56600;BME280;51832;48.152;11.530;2023-08-06T19:29:29;95150.25;;;14.05;99.19
56600;BME280;51832;48.152;11.530;2023-08-06T19:34:29;95141.16;;;13.96;99.37
56600;BME280;51832;48.152;11.530;2023-08-06T19:39:29;95137.53;;;13.75;98.45
56600;BME280;51832;48.152;11.530;2023-08-06T19:44:30;95160.94;;;13.67;97.84
56600;BME280;51832;48.152;11.530;2023-08-06T19:49:30;95145.47;;;13.75;97.57
56600;BME280;51832;48.152;11.530;2023-08-06T19:54:31;95143.06;;;13.74;97.82
56600;BME280;51832;48.152;11.530;2023-08-06T19:59:31;95144.50;;;13.86;98.16
56600;BME280;51832;48.152;11.530;2023-08-06T20:04:32;95203.88;;;13.74;98.74
56600;BME280;51832;48.152;11.530;2023-08-06T20:09:32;95133.38;;;13.84;98.24
56600;BME280;51832;48.152;11.530;2023-08-06T20:14:33;95157.72;;;13.86;98.12
56600;BME280;51832;48.152;11.530;2023-08-06T20:19:34;95141.66;;;13.66;98.04
56600;BME280;51832;48.152;11.530;2023-08-06T20:24:34;95148.00;;;13.65;97.94
56600;BME280;51832;48.152;11.530;2023-08-06T20:29:35;95170.38;;;13.58;97.96
56600;BME280;51832;48.152;11.530;2023-08-06T20:34:35;95155.28;;;13.80;96.85
56600;BME280;51832;48.152;11.530;2023-08-06T20:39:36;95182.78;;;13.57;97.33
56600;BME280;51832;48.152;11.530;2023-08-06T20:44:37;95156.66;;;13.61;96.33
56600;BME280;51832;48.152;11.530;2023-08-06T20:49:38;95187.72;;;13.48;96.91
56600;BME280;51832;48.152;11.530;2023-08-06T20:54:38;95191.75;;;13.56;95.65
56600;BME280;51832;48.152;11.530;2023-08-06T20:59:39;95175.75;;;13.68;95.11
56600;BME280;51832;48.152;11.530;2023-08-06T21:04:41;95193.16;;;13.42;95.24
56600;BME280;51832;48.152;11.530;2023-08-06T21:09:41;95196.25;;;13.56;94.93
56600;BME280;51832;48.152;11.530;2023-08-06T21:14:42;95204.66;;;13.31;95.52
56600;BME280;51832;48.152;11.530;2023-08-06T21:19:42;95205.69;;;13.13;95.75
56600;BME280;51832;48.152;11.530;2023-08-06T21:24:43;95214.75;;;13.34;94.67
56600;BME280;51832;48.152;11.530;2023-08-06T21:29:43;95219.66;;;13.25;94.61
56600;BME280;51832;48.152;11.530;2023-08-06T21:34:44;95204.53;;;13.42;94.30
56600;BME280;51832;48.152;11.530;2023-08-06T21:39:45;95185.25;;;13.42;93.69
56600;BME280;51832;48.152;11.530;2023-08-06T21:44:47;95206.91;;;13.39;93.67
56600;BME280;51832;48.152;11.530;2023-08-06T21:49:49;95197.72;;;13.46;93.09
56600;BME280;51832;48.152;11.530;2023-08-06T21:54:49;95192.25;;;13.53;92.15
56600;BME280;51832;48.152;11.530;2023-08-06T21:59:50;95203.81;;;13.47;91.69
56600;BME280;51832;48.152;11.530;2023-08-06T22:04:51;95216.09;;;13.36;90.90
56600;BME280;51832;48.152;11.530;2023-08-06T22:09:51;95206.34;;;13.59;90.27
56600;BME280;51832;48.152;11.530;2023-08-06T22:14:52;95232.56;;;13.43;89.95
56600;BME280;51832;48.152;11.530;2023-08-06T22:19:53;95223.69;;;13.49;88.66
56600;BME280;51832;48.152;11.530;2023-08-06T22:24:54;95185.81;;;13.66;88.09
56600;BME280;51832;48.152;11.530;2023-08-06T22:29:54;95178.59;;;13.61;87.62
56600;BME280;51832;48.152;11.530;2023-08-06T22:34:56;95220.53;;;13.52;87.37
56600;BME280;51832;48.152;11.530;2023-08-06T22:39:56;95187.59;;;13.60;87.12
56600;BME280;51832;48.152;11.530;2023-08-06T22:44:59;95193.66;;;13.61;86.86
56600;BME280;51832;48.152;11.530;2023-08-06T22:50:00;95186.53;;;13.39;87.58
56600;BME280;51832;48.152;11.530;2023-08-06T22:55:01;95172.22;;;13.57;87.57
56600;BME280;51832;48.152;11.530;2023-08-06T23:00:02;95201.13;;;13.64;87.04
56600;BME280;51832;48.152;11.530;2023-08-06T23:05:05;95174.75;;;13.47;87.51
56600;BME280;51832;48.152;11.530;2023-08-06T23:10:06;95175.94;;;13.39;87.98
56600;BME280;51832;48.152;11.530;2023-08-06T23:15:07;95172.53;;;13.39;87.64
56600;BME280;51832;48.152;11.530;2023-08-06T23:20:08;95189.34;;;13.33;87.42
56600;BME280;51832;48.152;11.530;2023-08-06T23:25:09;95178.09;;;13.42;87.24
56600;BME280;51832;48.152;11.530;2023-08-06T23:30:10;95178.88;;;13.38;87.70
56600;BME280;51832;48.152;11.530;2023-08-06T23:35:10;95197.25;;;13.49;87.43
56600;BME280;51832;48.152;11.530;2023-08-06T23:40:11;95166.25;;;13.45;87.88
56600;BME280;51832;48.152;11.530;2023-08-06T23:45:11;95184.44;;;13.20;88.27
56600;BME280;51832;48.152;11.530;2023-08-06T23:50:11;95172.41;;;13.50;87.28
56600;BME280;51832;48.152;11.530;2023-08-06T23:55:12;95173.50;;;13.33;88.22
